createdAt,value
2019-05-17T00:01:57.830Z,100248.00
2019-05-17T00:04:27.347Z,100253.00
2019-05-17T00:06:57.110Z,100249.00
2019-05-17T00:09:26.891Z,100246.00
2019-05-17T00:11:56.833Z,100248.00
2019-05-17T00:14:27.135Z,100243.00
2019-05-17T00:16:57.296Z,100244.00
2019-05-17T00:19:27.021Z,100234.00
2019-05-17T00:21:56.794Z,100233.00
2019-05-17T00:24:26.658Z,100229.00
2019-05-17T00:26:58.436Z,100228.00
2019-05-17T00:29:27.451Z,100231.00
2019-05-17T00:31:56.957Z,100227.00
2019-05-17T00:34:27.056Z,100217.00
2019-05-17T00:36:57.410Z,100217.00
2019-05-17T00:39:27.252Z,100217.00
2019-05-17T00:41:57.295Z,100220.00
2019-05-17T00:44:27.239Z,100220.00
2019-05-17T00:46:58.880Z,100217.00
2019-05-17T00:49:28.049Z,100205.00
2019-05-17T00:51:57.557Z,100207.00
2019-05-17T00:54:27.035Z,100202.00
2019-05-17T00:56:56.784Z,100208.00
2019-05-17T00:59:26.438Z,100212.00
2019-05-17T01:01:56.269Z,100207.00
2019-05-17T01:04:27.629Z,100211.00
2019-05-17T01:06:56.921Z,100198.00
2019-05-17T01:09:27.339Z,100201.00
2019-05-17T01:11:56.909Z,100206.00
2019-05-17T01:14:26.627Z,100201.00
2019-05-17T01:16:56.579Z,100203.00
2019-05-17T01:19:27.038Z,100197.00
2019-05-17T01:21:56.929Z,100189.00
2019-05-17T01:24:27.442Z,100189.00
2019-05-17T01:26:57.473Z,100190.00
2019-05-17T01:29:27.085Z,100186.00
2019-05-17T01:31:57.090Z,100190.00
2019-05-17T01:34:27.236Z,100185.00
2019-05-17T01:36:57.033Z,100183.00
2019-05-17T01:39:26.933Z,100191.00
2019-05-17T01:41:57.393Z,100196.00
2019-05-17T01:44:27.287Z,100199.00
2019-05-17T01:46:57.052Z,100198.00
2019-05-17T01:49:27.066Z,100197.00
2019-05-17T01:51:56.934Z,100189.00
2019-05-17T01:54:27.043Z,100182.00
2019-05-17T01:56:56.734Z,100181.00
2019-05-17T01:59:26.838Z,100184.00
2019-05-17T02:01:57.952Z,100186.00
2019-05-17T02:04:27.421Z,100189.00
2019-05-17T02:06:57.410Z,100188.00
2019-05-17T02:09:37.179Z,100191.00
2019-05-17T02:11:58.169Z,100187.00
2019-05-17T02:14:27.632Z,100195.00
2019-05-17T02:16:57.398Z,100189.00
2019-05-17T02:19:27.003Z,100193.00
2019-05-17T02:21:57.009Z,100189.00
2019-05-17T02:24:27.522Z,100182.00
2019-05-17T02:26:57.179Z,100193.00
2019-05-17T02:29:26.603Z,100198.00
2019-05-17T02:31:56.802Z,100193.00
2019-05-17T02:34:26.277Z,100192.00
2019-05-17T02:36:55.705Z,100196.00
2019-05-17T02:39:25.181Z,100188.00
2019-05-17T02:41:54.628Z,100185.00
2019-05-17T02:44:24.089Z,100184.00
2019-05-17T02:46:53.884Z,100183.00
2019-05-17T02:49:23.813Z,100180.00
2019-05-17T02:51:53.256Z,100178.00
2019-05-17T02:54:23.545Z,100173.00
2019-05-17T02:56:53.925Z,100174.00
2019-05-17T02:59:23.627Z,100177.00
2019-05-17T03:01:53.103Z,100178.00
2019-05-17T03:04:23.649Z,100177.00
2019-05-17T03:06:53.521Z,100171.00
2019-05-17T03:09:23.161Z,100166.00
2019-05-17T03:11:56.606Z,100170.00
2019-05-17T03:14:23.779Z,100165.00
2019-05-17T03:16:53.780Z,100174.00
2019-05-17T03:19:23.702Z,100184.00
2019-05-17T03:21:53.707Z,100177.00
2019-05-17T03:24:24.112Z,100184.00
2019-05-17T03:26:53.566Z,100180.00
2019-05-17T03:29:23.070Z,100186.00
2019-05-17T03:32:00.200Z,100180.00
2019-05-17T03:34:27.145Z,100172.00
2019-05-17T03:36:57.235Z,100183.00
2019-05-17T03:39:26.766Z,100184.00
2019-05-17T03:41:56.219Z,100170.00
2019-05-17T03:44:25.707Z,100173.00
2019-05-17T03:46:55.212Z,100168.00
2019-05-17T03:49:24.665Z,100168.00
2019-05-17T03:51:54.251Z,100166.00
2019-05-17T03:54:23.726Z,100169.00
2019-05-17T03:56:53.467Z,100166.00
2019-05-17T03:59:24.230Z,100163.00
2019-05-17T04:01:53.998Z,100156.00
2019-05-17T04:04:23.534Z,100159.00
2019-05-17T04:06:52.996Z,100156.00
2019-05-17T04:09:22.682Z,100149.00
2019-05-17T04:11:53.535Z,100156.00
2019-05-17T04:14:23.400Z,100151.00
2019-05-17T04:16:53.658Z,100167.00
2019-05-17T04:19:23.349Z,100175.00
2019-05-17T04:21:53.675Z,100179.00
2019-05-17T04:24:23.442Z,100178.00
2019-05-17T04:26:52.839Z,100172.00
2019-05-17T04:29:22.815Z,100167.00
2019-05-17T04:31:54.588Z,100180.00
2019-05-17T04:34:23.634Z,100178.00
2019-05-17T04:36:53.114Z,100183.00
2019-05-17T04:39:22.780Z,100186.00
2019-05-17T04:41:54.877Z,100187.00
2019-05-17T04:44:23.533Z,100187.00
2019-05-17T04:46:53.736Z,100193.00
2019-05-17T04:49:24.218Z,100184.00
2019-05-17T04:51:53.974Z,100186.00
2019-05-17T04:54:23.417Z,100176.00
2019-05-17T04:56:53.430Z,100166.00
2019-05-17T04:59:24.317Z,100169.00
2019-05-17T05:01:54.310Z,100164.00
2019-05-17T05:04:23.758Z,100175.00
2019-05-17T05:06:53.256Z,100177.00
2019-05-17T05:09:23.206Z,100175.00
2019-05-17T05:12:00.720Z,100166.00
2019-05-17T05:14:23.996Z,100163.00
2019-05-17T05:16:53.466Z,100160.00
2019-05-17T05:19:22.915Z,100158.00
2019-05-17T05:21:52.398Z,100162.00
2019-05-17T05:24:22.247Z,100164.00
2019-05-17T05:26:51.897Z,100155.00
2019-05-17T05:29:21.693Z,100150.00
2019-05-17T05:31:51.771Z,100150.00
2019-05-17T05:34:21.711Z,100153.00
2019-05-17T05:36:52.480Z,100162.00
2019-05-17T05:39:22.863Z,100147.00
2019-05-17T05:42:05.057Z,100160.00
2019-05-17T05:44:23.689Z,100156.00
2019-05-17T05:46:53.170Z,100165.00
2019-05-17T05:49:22.623Z,100147.00
2019-05-17T05:51:52.427Z,100154.00
2019-05-17T05:54:22.528Z,100149.00
2019-05-17T05:56:52.520Z,100141.00
2019-05-17T05:59:22.554Z,100150.00
2019-05-17T06:01:52.521Z,100160.00
2019-05-17T06:04:22.431Z,100150.00
2019-05-17T06:06:52.273Z,100148.00
2019-05-17T06:09:22.321Z,100160.00
2019-05-17T06:11:52.085Z,100160.00
2019-05-17T06:14:21.726Z,100167.00
2019-05-17T06:16:52.050Z,100167.00
2019-05-17T06:19:22.472Z,100168.00
2019-05-17T06:21:52.161Z,100164.00
2019-05-17T06:24:22.517Z,100172.00
2019-05-17T06:26:52.606Z,100166.00
2019-05-17T06:29:22.326Z,100162.00
2019-05-17T06:31:51.980Z,100169.00
2019-05-17T06:34:22.327Z,100163.00
2019-05-17T06:36:52.774Z,100161.00
2019-05-17T06:39:22.589Z,100153.00
2019-05-17T06:41:52.331Z,100157.00
2019-05-17T06:44:21.876Z,100153.00
2019-05-17T06:46:51.955Z,100149.00
2019-05-17T06:49:22.477Z,100147.00
2019-05-17T06:51:52.111Z,100143.00
2019-05-17T06:54:21.723Z,100149.00
2019-05-17T06:56:52.536Z,100138.00
2019-05-17T06:59:22.206Z,100141.00
2019-05-17T07:01:51.670Z,100138.00
2019-05-17T07:04:21.099Z,100139.00
2019-05-17T07:07:10.656Z,100141.00
2019-05-17T07:09:40.125Z,100143.00
2019-05-17T07:12:10.477Z,100144.00
2019-05-17T07:14:40.213Z,100146.00
2019-05-17T07:17:09.949Z,100142.00
2019-05-17T07:19:40.205Z,100133.00
2019-05-17T07:22:09.899Z,100135.00
2019-05-17T07:24:39.798Z,100143.00
2019-05-17T07:27:09.934Z,100145.00
2019-05-17T07:29:40.325Z,100141.00
2019-05-17T07:32:10.021Z,100143.00
2019-05-17T07:34:40.102Z,100147.00
2019-05-17T07:37:10.639Z,100147.00
2019-05-17T07:39:42.357Z,100146.00
2019-05-17T07:42:12.675Z,100147.00
2019-05-17T07:44:44.044Z,100147.00
2019-05-17T07:47:13.243Z,100148.00
2019-05-17T07:49:42.699Z,100148.00
2019-05-17T07:52:12.130Z,100144.00
2019-05-17T07:54:41.611Z,100140.00
2019-05-17T07:57:11.045Z,100136.00
2019-05-17T07:59:40.580Z,100139.00
2019-05-17T08:02:10.701Z,100124.00
2019-05-17T08:04:40.786Z,100130.00
2019-05-17T08:07:11.005Z,100129.00
2019-05-17T08:09:40.748Z,100129.00
2019-05-17T08:12:11.015Z,100124.00
2019-05-17T08:14:40.662Z,100131.00
2019-05-17T08:17:10.308Z,100126.00
2019-05-17T08:19:40.308Z,100131.00
2019-05-17T08:22:10.104Z,100129.00
2019-05-17T08:24:40.055Z,100136.00
2019-05-17T08:27:10.370Z,100128.00
2019-05-17T08:29:41.734Z,100121.00
2019-05-17T08:32:11.406Z,100122.00
2019-05-17T08:34:42.959Z,100123.00
2019-05-17T08:37:12.386Z,100114.00
2019-05-17T08:39:41.914Z,100121.00
2019-05-17T08:42:11.355Z,100127.00
2019-05-17T08:44:40.811Z,100113.00
2019-05-17T08:47:10.353Z,100123.00
2019-05-17T08:49:40.333Z,100111.00
2019-05-17T08:52:10.041Z,100112.00
2019-05-17T08:54:42.753Z,100113.00
2019-05-17T08:57:10.630Z,100117.00
2019-05-17T08:59:40.573Z,100116.00
2019-05-17T09:02:10.777Z,100118.00
2019-05-17T09:04:40.643Z,100121.00
2019-05-17T09:07:10.184Z,100117.00
2019-05-17T09:09:39.644Z,100111.00
2019-05-17T09:12:11.016Z,100109.00
2019-05-17T09:14:40.263Z,100112.00
2019-05-17T09:17:10.377Z,100116.00
2019-05-17T09:19:39.819Z,100117.00
2019-05-17T09:22:10.599Z,100115.00
2019-05-17T09:24:40.114Z,100110.00
2019-05-17T09:27:10.094Z,100110.00
2019-05-17T09:29:40.346Z,100115.00
2019-05-17T09:32:10.006Z,100112.00
2019-05-17T09:34:40.450Z,100115.00
2019-05-17T09:37:10.024Z,100107.00
2019-05-17T09:39:40.275Z,100105.00
2019-05-17T09:42:10.366Z,100101.00
2019-05-17T09:44:40.486Z,100100.00
2019-05-17T09:47:10.276Z,100097.00
2019-05-17T09:49:39.730Z,100089.00
2019-05-17T09:52:09.583Z,100091.00
2019-05-17T09:54:45.128Z,100103.00
2019-05-17T09:57:10.352Z,100089.00
2019-05-17T09:59:40.540Z,100090.00
2019-05-17T10:02:11.474Z,100087.00
2019-05-17T10:04:41.034Z,100086.00
2019-05-17T10:07:10.553Z,100084.00
2019-05-17T10:09:40.185Z,100085.00
2019-05-17T10:12:09.785Z,100079.00
2019-05-17T10:14:39.253Z,100073.00
2019-05-17T10:17:09.861Z,100077.00
2019-05-17T10:19:40.230Z,100070.00
2019-05-17T10:22:10.422Z,100075.00
2019-05-17T10:24:42.464Z,100060.00
2019-05-17T10:27:14.482Z,100063.00
2019-05-17T10:29:42.749Z,100061.00
2019-05-17T10:32:12.275Z,100070.00
2019-05-17T10:34:41.739Z,100066.00
2019-05-17T10:37:11.178Z,100067.00
2019-05-17T10:39:41.767Z,100054.00
2019-05-17T10:42:11.293Z,100054.00
2019-05-17T10:44:46.555Z,100059.00
2019-05-17T10:47:11.927Z,100055.00
2019-05-17T10:49:41.390Z,100062.00
2019-05-17T10:52:10.848Z,100066.00
2019-05-17T10:54:40.412Z,100065.00
2019-05-17T10:57:10.567Z,100060.00
2019-05-17T10:59:40.093Z,100059.00
2019-05-17T11:02:10.083Z,100048.00
2019-05-17T11:05:00.675Z,100054.00
2019-05-17T11:07:30.279Z,100052.00
2019-05-17T11:10:00.536Z,100050.00
2019-05-17T11:12:30.278Z,100053.00
2019-05-17T11:15:10.290Z,100054.00
2019-05-17T11:17:31.107Z,100056.00
2019-05-17T11:20:00.749Z,100060.00
2019-05-17T11:22:30.313Z,100059.00
2019-05-17T11:24:59.757Z,100053.00
2019-05-17T11:27:29.243Z,100059.00
2019-05-17T11:29:58.704Z,100056.00
2019-05-17T11:32:28.165Z,100059.00
2019-05-17T11:34:57.613Z,100060.00
2019-05-17T11:37:27.075Z,100050.00
2019-05-17T11:39:56.502Z,100066.00
2019-05-17T11:42:25.955Z,100052.00
2019-05-17T11:44:55.400Z,100061.00
2019-05-17T11:47:24.866Z,100057.00
2019-05-17T11:49:54.366Z,100060.00
2019-05-17T11:52:23.810Z,100055.00
2019-05-17T11:54:53.230Z,100064.00
2019-05-17T11:57:22.764Z,100063.00
2019-05-17T11:59:52.205Z,100063.00
2019-05-17T12:02:24.091Z,100063.00
2019-05-17T12:04:53.576Z,100062.00
2019-05-17T12:07:23.069Z,100062.00
2019-05-17T12:09:52.481Z,100065.00
2019-05-17T12:12:21.965Z,100070.00
2019-05-17T12:14:51.410Z,100077.00
2019-05-17T12:17:20.844Z,100067.00
2019-05-17T12:19:50.325Z,100073.00
2019-05-17T12:22:19.782Z,100073.00
2019-05-17T12:24:49.311Z,100068.00
2019-05-17T12:27:18.798Z,100069.00
2019-05-17T12:29:48.249Z,100066.00
2019-05-17T12:32:17.706Z,100066.00
2019-05-17T12:34:47.349Z,100061.00
2019-05-17T12:37:16.804Z,100064.00
2019-05-17T12:39:46.254Z,100052.00
2019-05-17T12:42:15.750Z,100042.00
2019-05-17T12:44:45.171Z,100050.00
2019-05-17T12:47:14.774Z,100042.00
2019-05-17T12:49:45.448Z,100040.00
2019-05-17T12:52:14.897Z,100042.00
2019-05-17T12:54:44.333Z,100041.00
2019-05-17T12:57:13.819Z,100043.00
2019-05-17T12:59:43.255Z,100032.00
2019-05-17T13:02:12.738Z,100040.00
2019-05-17T13:04:42.189Z,100033.00
2019-05-17T13:07:11.642Z,100034.00
2019-05-17T13:09:45.778Z,100035.00
2019-05-17T13:12:15.266Z,100031.00
2019-05-17T13:14:44.718Z,100034.00
2019-05-17T13:17:14.219Z,100031.00
2019-05-17T13:19:43.653Z,100032.00
2019-05-17T13:22:13.108Z,100025.00
2019-05-17T13:24:42.603Z,100019.00
2019-05-17T13:27:12.059Z,100017.00
2019-05-17T13:29:41.489Z,100003.00
2019-05-17T13:32:10.921Z,100007.00
2019-05-17T13:34:40.439Z,100008.00
2019-05-17T13:37:09.894Z,100007.00
2019-05-17T13:39:39.363Z,100003.00
2019-05-17T13:42:08.827Z,100001.00
2019-05-17T13:44:38.315Z,99999.00
2019-05-17T13:47:07.744Z,99997.00
2019-05-17T13:49:37.224Z,99997.00
2019-05-17T13:52:06.654Z,99999.00
2019-05-17T13:54:36.276Z,100001.00
2019-05-17T13:57:05.736Z,100003.00
2019-05-17T13:59:35.297Z,99997.00
2019-05-17T14:02:04.953Z,99997.00
2019-05-17T14:04:34.445Z,100004.00
2019-05-17T14:07:03.897Z,99997.00
2019-05-17T14:09:33.327Z,99998.00
2019-05-17T14:12:04.300Z,99997.00
2019-05-17T14:14:34.419Z,99989.00
2019-05-17T14:17:04.038Z,99988.00
2019-05-17T14:19:33.496Z,99982.00
2019-05-17T14:22:04.694Z,99978.00
2019-05-17T14:24:34.118Z,99993.00
2019-05-17T14:27:03.614Z,99991.00
2019-05-17T14:29:33.066Z,99993.00
2019-05-17T14:32:02.563Z,99988.00
2019-05-17T14:34:32.048Z,99991.00
2019-05-17T14:37:01.495Z,99986.00
2019-05-17T14:39:30.951Z,99989.00
2019-05-17T14:42:00.425Z,99972.00
2019-05-17T14:44:29.894Z,99983.00
2019-05-17T14:46:59.351Z,99978.00
2019-05-17T14:49:28.819Z,99971.00
2019-05-17T14:51:58.273Z,99967.00
2019-05-17T14:54:27.723Z,99969.00
2019-05-17T14:56:57.180Z,99972.00
2019-05-17T14:59:26.639Z,99969.00
2019-05-17T15:01:56.093Z,99969.00
2019-05-17T15:04:29.666Z,99972.00
2019-05-17T15:06:59.127Z,99972.00
2019-05-17T15:09:28.767Z,99972.00
2019-05-17T15:11:58.536Z,99964.00
2019-05-17T15:14:29.633Z,99969.00
2019-05-17T15:16:59.325Z,99957.00
2019-05-17T15:19:28.799Z,99959.00
2019-05-17T15:21:58.240Z,99960.00
2019-05-17T15:24:27.693Z,99962.00
2019-05-17T15:27:05.511Z,99961.00
2019-05-17T15:29:28.516Z,99959.00
2019-05-17T15:31:57.959Z,99957.00
2019-05-17T15:34:27.482Z,99962.00
2019-05-17T15:36:56.976Z,99953.00
2019-05-17T15:39:26.428Z,99960.00
2019-05-17T15:41:55.910Z,99959.00
2019-05-17T15:44:27.072Z,99957.00
2019-05-17T15:46:56.614Z,99952.00
2019-05-17T15:49:26.074Z,99950.00
2019-05-17T15:51:55.556Z,99945.00
2019-05-17T15:54:26.383Z,99952.00
2019-05-17T15:56:55.843Z,99946.00
2019-05-17T15:59:25.320Z,99950.00
2019-05-17T16:01:54.800Z,99941.00
2019-05-17T16:04:24.269Z,99933.00
2019-05-17T16:06:53.976Z,99943.00
2019-05-17T16:09:25.278Z,99929.00
2019-05-17T16:11:54.936Z,99944.00
2019-05-17T16:14:26.940Z,99927.00
2019-05-17T16:16:59.620Z,99938.00
2019-05-17T16:19:29.159Z,99941.00
2019-05-17T16:22:01.828Z,99936.00
2019-05-17T16:24:31.262Z,99939.00
2019-05-17T16:27:00.882Z,99935.00
2019-05-17T16:29:30.399Z,99940.00
2019-05-17T16:32:00.332Z,99942.00
2019-05-17T16:34:30.409Z,99943.00
2019-05-17T16:37:01.919Z,99942.00
2019-05-17T16:39:34.640Z,99942.00
2019-05-17T16:42:06.042Z,99947.00
2019-05-17T16:44:38.435Z,99946.00
2019-05-17T16:47:10.027Z,99940.00
2019-05-17T16:49:41.179Z,99936.00
2019-05-17T16:52:10.681Z,99943.00
2019-05-17T16:54:40.127Z,99938.00
2019-05-17T16:57:11.120Z,99943.00
2019-05-17T16:59:41.083Z,99940.00
2019-05-17T17:02:11.109Z,99944.00
2019-05-17T17:04:42.172Z,99943.00
2019-05-17T17:07:12.381Z,99943.00
2019-05-17T17:09:44.544Z,99934.00
2019-05-17T17:12:14.274Z,99938.00
2019-05-17T17:14:45.539Z,99939.00
2019-05-17T17:17:34.830Z,99944.00
2019-05-17T17:20:08.987Z,99945.00
2019-05-17T17:22:46.192Z,99941.00
2019-05-17T17:25:20.734Z,99945.00
2019-05-17T17:27:52.178Z,99947.00
2019-05-17T17:30:22.426Z,99944.00
2019-05-17T17:32:54.769Z,99939.00
2019-05-17T17:35:25.985Z,99953.00
2019-05-17T17:37:55.978Z,99952.00
2019-05-17T17:40:31.600Z,99949.00
2019-05-17T17:43:02.226Z,99949.00
2019-05-17T17:45:33.307Z,99957.00
2019-05-17T17:48:09.032Z,99957.00
2019-05-17T17:50:41.873Z,99960.00
2019-05-17T17:53:11.904Z,99961.00
2019-05-17T17:55:44.261Z,99958.00
2019-05-17T17:58:16.041Z,99958.00
2019-05-17T18:00:45.870Z,99957.00
2019-05-17T18:03:21.863Z,99960.00
2019-05-17T18:05:53.300Z,99957.00
2019-05-17T18:08:23.230Z,99961.00
2019-05-17T18:10:54.153Z,99956.00
2019-05-17T18:13:25.591Z,99951.00
2019-05-17T18:15:55.446Z,99956.00
2019-05-17T18:18:28.504Z,99959.00
2019-05-17T18:20:59.118Z,99960.00
2019-05-17T18:23:30.684Z,99963.00
2019-05-17T18:26:00.307Z,99955.00
2019-05-17T18:28:30.503Z,99959.00
2019-05-17T18:31:02.927Z,99961.00
2019-05-17T18:33:32.681Z,99964.00
2019-05-17T18:36:02.242Z,99957.00
2019-05-17T18:38:43.853Z,99961.00
2019-05-17T18:41:13.977Z,99960.00
2019-05-17T18:43:44.967Z,99963.00
2019-05-17T18:46:15.267Z,99965.00
2019-05-17T18:48:46.994Z,99968.00
2019-05-17T18:51:18.166Z,99968.00
2019-05-17T18:53:48.023Z,99978.00
2019-05-17T18:56:17.765Z,99972.00
2019-05-17T18:58:48.110Z,99983.00
2019-05-17T19:01:18.643Z,99989.00
2019-05-17T19:03:53.425Z,99990.00
2019-05-17T19:06:23.625Z,100001.00
2019-05-17T19:08:54.904Z,99998.00
2019-05-17T19:11:26.515Z,99997.00
2019-05-17T19:13:59.995Z,100001.00
2019-05-17T19:16:35.600Z,100001.00
2019-05-17T19:19:05.233Z,100005.00
2019-05-17T19:21:34.730Z,100003.00
2019-05-17T19:24:08.831Z,99995.00
2019-05-17T19:26:41.105Z,99990.00
2019-05-17T19:29:15.056Z,99995.00
2019-05-17T19:31:53.056Z,99993.00
2019-05-17T19:34:23.115Z,99995.00
2019-05-17T19:36:59.044Z,99987.00
2019-05-17T19:39:31.893Z,99983.00
2019-05-17T19:42:08.933Z,99984.00
2019-05-17T19:44:38.877Z,99980.00
2019-05-17T19:47:12.627Z,99976.00
2019-05-17T19:49:46.358Z,99972.00
2019-05-17T19:52:21.361Z,99977.00
2019-05-17T19:54:52.510Z,99970.00
2019-05-17T19:57:28.391Z,99974.00
2019-05-17T19:59:58.261Z,99983.00
2019-05-17T20:02:29.870Z,99977.00
2019-05-17T20:05:06.642Z,99976.00
2019-05-17T20:07:39.407Z,99980.00
2019-05-17T20:10:14.449Z,99991.00
2019-05-17T20:12:52.465Z,99986.00
2019-05-17T20:15:34.137Z,99988.00
2019-05-17T20:17:56.725Z,99994.00
2019-05-17T20:20:27.997Z,99990.00
2019-05-17T20:23:02.033Z,99983.00
2019-05-17T20:25:31.735Z,99980.00
2019-05-17T20:28:06.933Z,99973.00
2019-05-17T20:30:35.968Z,99976.00
2019-05-17T20:33:10.494Z,99981.00
2019-05-17T20:35:40.178Z,99980.00
2019-05-17T20:38:16.640Z,99982.00
2019-05-17T20:40:46.846Z,99975.00
2019-05-17T20:43:18.104Z,99976.00
2019-05-17T20:45:50.229Z,99978.00
2019-05-17T20:48:21.912Z,99991.00
2019-05-17T20:50:55.681Z,99998.00
2019-05-17T20:53:25.371Z,99999.00
2019-05-17T20:55:55.139Z,100001.00
2019-05-17T20:58:27.504Z,100003.00
2019-05-17T21:01:01.974Z,100006.00
2019-05-17T21:03:32.219Z,100006.00
2019-05-17T21:06:04.972Z,99997.00
2019-05-17T21:08:45.721Z,99998.00
2019-05-17T21:11:08.289Z,99998.00
2019-05-17T21:13:41.022Z,100001.00
2019-05-17T21:16:10.720Z,100000.00
2019-05-17T21:18:40.324Z,100008.00
2019-05-17T21:21:11.131Z,99996.00
2019-05-17T21:23:51.986Z,100005.00
2019-05-17T21:26:21.615Z,100006.00
2019-05-17T21:28:53.148Z,100010.00
2019-05-17T21:31:23.484Z,100015.00
2019-05-17T21:33:53.306Z,100008.00
2019-05-17T21:36:25.072Z,100010.00
2019-05-17T21:38:54.604Z,100004.00
2019-05-17T21:41:27.705Z,99998.00
2019-05-17T21:43:57.738Z,100010.00
2019-05-17T21:46:34.032Z,100004.00
2019-05-17T21:49:05.007Z,100008.00
2019-05-17T21:51:35.402Z,99997.00
2019-05-17T21:54:13.906Z,99995.00
2019-05-17T21:56:45.426Z,100001.00
2019-05-17T21:59:18.165Z,99997.00
2019-05-17T22:01:50.730Z,99997.00
2019-05-17T22:04:20.900Z,100002.00
2019-05-17T22:06:54.983Z,99984.00
2019-05-17T22:09:26.617Z,99984.00
2019-05-17T22:12:02.178Z,99980.00
2019-05-17T22:14:33.083Z,99986.00
2019-05-17T22:17:02.972Z,99965.00
2019-05-17T22:19:32.690Z,99971.00
2019-05-17T22:22:02.367Z,99968.00
2019-05-17T22:24:35.402Z,99974.00
2019-05-17T22:27:05.567Z,99973.00
2019-05-17T22:29:35.254Z,99972.00
2019-05-17T22:32:05.540Z,99964.00
2019-05-17T22:34:35.589Z,99960.00
2019-05-17T22:37:07.570Z,99952.00
2019-05-17T22:39:38.607Z,99958.00
2019-05-17T22:42:08.266Z,99969.00
2019-05-17T22:44:37.872Z,99966.00
2019-05-17T22:47:09.461Z,99970.00
2019-05-17T22:49:41.967Z,99967.00
2019-05-17T22:52:11.526Z,99971.00
2019-05-17T22:54:42.964Z,99977.00
2019-05-17T22:57:13.606Z,99976.00
2019-05-17T22:59:43.806Z,99973.00
2019-05-17T23:02:17.909Z,99973.00
2019-05-17T23:04:50.030Z,99965.00
2019-05-17T23:07:20.732Z,99969.00
2019-05-17T23:09:50.170Z,99973.00
2019-05-17T23:12:22.800Z,99972.00
2019-05-17T23:14:55.443Z,99968.00
2019-05-17T23:17:24.873Z,99966.00
2019-05-17T23:19:57.703Z,99969.00
2019-05-17T23:22:27.287Z,99968.00
2019-05-17T23:24:58.586Z,99972.00
2019-05-17T23:27:32.481Z,99977.00
2019-05-17T23:30:07.633Z,99972.00
2019-05-17T23:32:38.721Z,99968.00
2019-05-17T23:35:08.430Z,99968.00
2019-05-17T23:37:37.947Z,99962.00
2019-05-17T23:40:08.249Z,99967.00
2019-05-17T23:42:37.683Z,99969.00
2019-05-17T23:45:10.900Z,99972.00
2019-05-17T23:47:40.356Z,99970.00
2019-05-17T23:50:10.417Z,99979.00
2019-05-17T23:52:39.894Z,99989.00
2019-05-17T23:55:09.928Z,99997.00
2019-05-17T23:57:39.395Z,99979.00
